Terminal Aerodrome Forecast
Issued by NWS Houston/Galveston, TX

Home | Current Version | Previous Version | Text Only | Print | Product List | Glossary On
Versions: 1 2 3 4 5 6 7 8 9 10 11 12 13 14 15 16 17 18 19 20 21 22 23 24 25 26 27 28 29 30 31
000
FTUS44 KHGX 012323
TAFCLL
TAF
KCLL 012323Z 0200/0224 02010KT P6SM SCT025 BKN050
     FM020100 02005KT P6SM SCT020 BKN050
      TEMPO 0210/0214 BKN020
     FM021400 01006KT P6SM SCT025
      TEMPO 0214/0216 BKN025
     FM021700 01008KT P6SM BKN035=

USA.gov is the U.S. government's official web portal to all federal, state and local government web resources and services.